sensor_id;sensor_type;location;lat;lon;timestamp;P1;durP1;ratioP1;P2;durP2;ratioP2
52360;SDS011;38294;42.966;1.608;2023-02-15T03:53:30;19.95;;;9.60;;
52360;SDS011;38294;42.966;1.608;2023-02-15T03:55:56;22.17;;;10.38;;
52360;SDS011;38294;42.966;1.608;2023-02-15T03:58:22;19.42;;;10.27;;
52360;SDS011;38294;42.966;1.608;2023-02-15T04:07:00;19.77;;;9.68;;
52360;SDS011;38294;42.966;1.608;2023-02-15T04:09:27;23.67;;;10.48;;
52360;SDS011;38294;42.966;1.608;2023-02-15T04:12:12;20.52;;;9.15;;
52360;SDS011;38294;42.966;1.608;2023-02-15T04:14:37;18.70;;;9.35;;
52360;SDS011;38294;42.966;1.608;2023-02-15T04:17:21;20.35;;;9.43;;
52360;SDS011;38294;42.966;1.608;2023-02-15T04:19:47;18.73;;;9.88;;
52360;SDS011;38294;42.966;1.608;2023-02-15T04:22:31;17.17;;;9.27;;
52360;SDS011;38294;42.966;1.608;2023-02-15T04:25:15;19.75;;;9.27;;
52360;SDS011;38294;42.966;1.608;2023-02-15T04:27:42;20.58;;;9.45;;
52360;SDS011;38294;42.966;1.608;2023-02-15T04:30:11;17.42;;;8.60;;
52360;SDS011;38294;42.966;1.608;2023-02-15T04:32:38;14.93;;;9.00;;
52360;SDS011;38294;42.966;1.608;2023-02-15T04:35:04;20.23;;;7.38;;
52360;SDS011;38294;42.966;1.608;2023-02-15T04:37:31;17.90;;;8.32;;
52360;SDS011;38294;42.966;1.608;2023-02-15T04:39:57;17.42;;;7.97;;
52360;SDS011;38294;42.966;1.608;2023-02-15T04:42:25;15.02;;;8.13;;
52360;SDS011;38294;42.966;1.608;2023-02-15T04:44:51;15.05;;;7.75;;
52360;SDS011;38294;42.966;1.608;2023-02-15T04:47:17;16.05;;;8.10;;
52360;SDS011;38294;42.966;1.608;2023-02-15T04:49:43;16.30;;;7.95;;
52360;SDS011;38294;42.966;1.608;2023-02-15T04:52:09;11.93;;;7.25;;
52360;SDS011;38294;42.966;1.608;2023-02-15T04:54:34;17.20;;;7.80;;
52360;SDS011;38294;42.966;1.608;2023-02-15T04:57:00;21.83;;;7.85;;
52360;SDS011;38294;42.966;1.608;2023-02-15T04:59:26;14.98;;;7.35;;
52360;SDS011;38294;42.966;1.608;2023-02-15T05:01:52;13.82;;;8.25;;
52360;SDS011;38294;42.966;1.608;2023-02-15T05:04:17;14.10;;;7.53;;
52360;SDS011;38294;42.966;1.608;2023-02-15T05:06:43;24.00;;;8.00;;
52360;SDS011;38294;42.966;1.608;2023-02-15T05:09:10;13.23;;;7.50;;
52360;SDS011;38294;42.966;1.608;2023-02-15T05:11:36;12.27;;;7.32;;
52360;SDS011;38294;42.966;1.608;2023-02-15T05:14:02;11.25;;;6.75;;
52360;SDS011;38294;42.966;1.608;2023-02-15T05:16:27;12.07;;;7.05;;
52360;SDS011;38294;42.966;1.608;2023-02-15T05:18:53;17.55;;;7.20;;
52360;SDS011;38294;42.966;1.608;2023-02-15T05:21:18;14.35;;;6.53;;
52360;SDS011;38294;42.966;1.608;2023-02-15T05:23:44;16.80;;;7.30;;
52360;SDS011;38294;42.966;1.608;2023-02-15T05:26:15;15.98;;;6.93;;
52360;SDS011;38294;42.966;1.608;2023-02-15T05:29:02;11.18;;;6.60;;
52360;SDS011;38294;42.966;1.608;2023-02-15T05:31:28;16.35;;;7.18;;
52360;SDS011;38294;42.966;1.608;2023-02-15T05:33:54;14.23;;;7.47;;
52360;SDS011;38294;42.966;1.608;2023-02-15T05:36:19;11.70;;;6.45;;
52360;SDS011;38294;42.966;1.608;2023-02-15T05:38:45;13.15;;;7.35;;
52360;SDS011;38294;42.966;1.608;2023-02-15T05:41:10;13.25;;;7.38;;
52360;SDS011;38294;42.966;1.608;2023-02-15T05:43:37;12.02;;;6.75;;
52360;SDS011;38294;42.966;1.608;2023-02-15T05:46:03;13.75;;;6.85;;
52360;SDS011;38294;42.966;1.608;2023-02-15T05:48:30;15.07;;;7.25;;
52360;SDS011;38294;42.966;1.608;2023-02-15T05:53:26;13.15;;;6.57;;
52360;SDS011;38294;42.966;1.608;2023-02-15T05:55:52;12.65;;;6.40;;
52360;SDS011;38294;42.966;1.608;2023-02-15T05:58:19;13.45;;;6.88;;
52360;SDS011;38294;42.966;1.608;2023-02-15T06:00:45;12.63;;;6.97;;
52360;SDS011;38294;42.966;1.608;2023-02-15T06:03:11;16.30;;;7.40;;
52360;SDS011;38294;42.966;1.608;2023-02-15T06:05:36;14.48;;;6.72;;
52360;SDS011;38294;42.966;1.608;2023-02-15T06:08:02;11.35;;;6.38;;
52360;SDS011;38294;42.966;1.608;2023-02-15T06:10:27;12.35;;;6.45;;
52360;SDS011;38294;42.966;1.608;2023-02-15T06:12:53;10.45;;;6.18;;
52360;SDS011;38294;42.966;1.608;2023-02-15T06:15:18;11.55;;;5.88;;
52360;SDS011;38294;42.966;1.608;2023-02-15T06:17:44;13.38;;;7.03;;
52360;SDS011;38294;42.966;1.608;2023-02-15T06:20:10;13.85;;;6.68;;
52360;SDS011;38294;42.966;1.608;2023-02-15T06:22:36;11.35;;;6.43;;
52360;SDS011;38294;42.966;1.608;2023-02-15T06:25:01;13.65;;;7.13;;
52360;SDS011;38294;42.966;1.608;2023-02-15T06:27:27;17.30;;;7.10;;
52360;SDS011;38294;42.966;1.608;2023-02-15T06:29:52;16.95;;;8.18;;
52360;SDS011;38294;42.966;1.608;2023-02-15T06:32:18;12.77;;;7.15;;
52360;SDS011;38294;42.966;1.608;2023-02-15T06:34:44;14.27;;;7.25;;
52360;SDS011;38294;42.966;1.608;2023-02-15T06:37:09;18.50;;;8.20;;
52360;SDS011;38294;42.966;1.608;2023-02-15T06:39:35;16.15;;;8.30;;
52360;SDS011;38294;42.966;1.608;2023-02-15T06:42:00;20.48;;;9.80;;
52360;SDS011;38294;42.966;1.608;2023-02-15T06:44:26;25.00;;;10.00;;
52360;SDS011;38294;42.966;1.608;2023-02-15T06:46:51;28.77;;;10.45;;
52360;SDS011;38294;42.966;1.608;2023-02-15T06:49:17;22.85;;;10.27;;
52360;SDS011;38294;42.966;1.608;2023-02-15T06:51:43;20.50;;;8.75;;
52360;SDS011;38294;42.966;1.608;2023-02-15T06:54:08;21.42;;;9.90;;
52360;SDS011;38294;42.966;1.608;2023-02-15T06:56:34;17.88;;;8.23;;
52360;SDS011;38294;42.966;1.608;2023-02-15T06:58:59;14.55;;;7.15;;
52360;SDS011;38294;42.966;1.608;2023-02-15T07:01:25;14.60;;;7.45;;
52360;SDS011;38294;42.966;1.608;2023-02-15T07:03:51;15.20;;;7.75;;
52360;SDS011;38294;42.966;1.608;2023-02-15T07:06:16;13.98;;;7.30;;
52360;SDS011;38294;42.966;1.608;2023-02-15T07:08:42;15.27;;;7.70;;
52360;SDS011;38294;42.966;1.608;2023-02-15T07:11:07;16.23;;;7.82;;
52360;SDS011;38294;42.966;1.608;2023-02-15T07:13:51;15.32;;;8.00;;
52360;SDS011;38294;42.966;1.608;2023-02-15T07:16:19;14.90;;;7.25;;
52360;SDS011;38294;42.966;1.608;2023-02-15T07:18:45;21.67;;;7.72;;
52360;SDS011;38294;42.966;1.608;2023-02-15T07:21:11;13.90;;;6.40;;
52360;SDS011;38294;42.966;1.608;2023-02-15T07:23:37;14.82;;;7.32;;
52360;SDS011;38294;42.966;1.608;2023-02-15T07:26:04;12.43;;;7.68;;
52360;SDS011;38294;42.966;1.608;2023-02-15T07:28:32;19.10;;;7.15;;
52360;SDS011;38294;42.966;1.608;2023-02-15T07:31:00;11.95;;;6.85;;
52360;SDS011;38294;42.966;1.608;2023-02-15T07:33:27;13.73;;;7.05;;
52360;SDS011;38294;42.966;1.608;2023-02-15T07:35:54;16.33;;;8.35;;
52360;SDS011;38294;42.966;1.608;2023-02-15T07:38:26;17.70;;;8.50;;
52360;SDS011;38294;42.966;1.608;2023-02-15T07:40:59;18.27;;;9.00;;
52360;SDS011;38294;42.966;1.608;2023-02-15T07:43:29;20.42;;;9.07;;
52360;SDS011;38294;42.966;1.608;2023-02-15T07:45:59;24.33;;;9.68;;
52360;SDS011;38294;42.966;1.608;2023-02-15T07:48:28;23.40;;;10.57;;
52360;SDS011;38294;42.966;1.608;2023-02-15T07:50:54;29.77;;;11.65;;
52360;SDS011;38294;42.966;1.608;2023-02-15T07:53:19;22.98;;;12.45;;
52360;SDS011;38294;42.966;1.608;2023-02-15T07:55:45;34.28;;;13.48;;
52360;SDS011;38294;42.966;1.608;2023-02-15T07:58:10;28.65;;;12.57;;
52360;SDS011;38294;42.966;1.608;2023-02-15T08:00:36;26.48;;;13.38;;
52360;SDS011;38294;42.966;1.608;2023-02-15T08:03:25;36.13;;;14.10;;
52360;SDS011;38294;42.966;1.608;2023-02-15T08:05:57;31.55;;;12.65;;
52360;SDS011;38294;42.966;1.608;2023-02-15T08:08:24;31.15;;;13.40;;
52360;SDS011;38294;42.966;1.608;2023-02-15T08:11:00;24.73;;;12.00;;
52360;SDS011;38294;42.966;1.608;2023-02-15T08:13:48;22.73;;;9.85;;
52360;SDS011;38294;42.966;1.608;2023-02-15T08:18:56;19.42;;;9.93;;
52360;SDS011;38294;42.966;1.608;2023-02-15T08:21:24;22.42;;;10.85;;
52360;SDS011;38294;42.966;1.608;2023-02-15T08:23:52;21.33;;;10.32;;
52360;SDS011;38294;42.966;1.608;2023-02-15T08:26:18;22.55;;;11.73;;
52360;SDS011;38294;42.966;1.608;2023-02-15T08:28:43;25.38;;;11.88;;
52360;SDS011;38294;42.966;1.608;2023-02-15T08:31:11;28.90;;;12.27;;
52360;SDS011;38294;42.966;1.608;2023-02-15T08:33:38;18.83;;;10.07;;
52360;SDS011;38294;42.966;1.608;2023-02-15T08:36:06;16.30;;;9.00;;
52360;SDS011;38294;42.966;1.608;2023-02-15T08:38:37;17.38;;;8.35;;
52360;SDS011;38294;42.966;1.608;2023-02-15T08:44:00;24.77;;;11.27;;
52360;SDS011;38294;42.966;1.608;2023-02-15T08:46:28;22.38;;;9.80;;
52360;SDS011;38294;42.966;1.608;2023-02-15T08:48:56;24.60;;;11.07;;
52360;SDS011;38294;42.966;1.608;2023-02-15T08:51:40;18.50;;;9.27;;
52360;SDS011;38294;42.966;1.608;2023-02-15T08:54:10;16.00;;;9.50;;
52360;SDS011;38294;42.966;1.608;2023-02-15T08:56:39;18.80;;;10.13;;
52360;SDS011;38294;42.966;1.608;2023-02-15T08:59:07;17.83;;;10.25;;
52360;SDS011;38294;42.966;1.608;2023-02-15T09:01:37;20.10;;;10.77;;
52360;SDS011;38294;42.966;1.608;2023-02-15T09:04:04;15.98;;;9.65;;
52360;SDS011;38294;42.966;1.608;2023-02-15T09:06:33;19.65;;;9.05;;
52360;SDS011;38294;42.966;1.608;2023-02-15T09:08:59;17.90;;;9.00;;
52360;SDS011;38294;42.966;1.608;2023-02-15T09:11:26;15.18;;;8.38;;
52360;SDS011;38294;42.966;1.608;2023-02-15T09:16:20;15.30;;;6.80;;
52360;SDS011;38294;42.966;1.608;2023-02-15T09:18:47;13.65;;;6.50;;
52360;SDS011;38294;42.966;1.608;2023-02-15T09:21:17;12.43;;;6.65;;
52360;SDS011;38294;42.966;1.608;2023-02-15T09:23:45;11.33;;;6.50;;
52360;SDS011;38294;42.966;1.608;2023-02-15T09:26:13;11.45;;;6.22;;
52360;SDS011;38294;42.966;1.608;2023-02-15T09:28:40;14.30;;;7.28;;
52360;SDS011;38294;42.966;1.608;2023-02-15T09:33:40;13.88;;;5.95;;
52360;SDS011;38294;42.966;1.608;2023-02-15T09:36:17;10.60;;;5.82;;
52360;SDS011;38294;42.966;1.608;2023-02-15T09:38:45;9.68;;;5.72;;
52360;SDS011;38294;42.966;1.608;2023-02-15T09:43:59;11.25;;;6.28;;
52360;SDS011;38294;42.966;1.608;2023-02-15T09:46:41;17.10;;;6.20;;
52360;SDS011;38294;42.966;1.608;2023-02-15T09:49:11;11.13;;;5.82;;
52360;SDS011;38294;42.966;1.608;2023-02-15T10:00:32;12.35;;;6.68;;
52360;SDS011;38294;42.966;1.608;2023-02-15T10:14:10;12.32;;;6.32;;
52360;SDS011;38294;42.966;1.608;2023-02-15T10:27:47;13.90;;;5.35;;
52360;SDS011;38294;42.966;1.608;2023-02-15T10:30:18;10.38;;;4.55;;
52360;SDS011;38294;42.966;1.608;2023-02-15T10:33:01;11.00;;;5.10;;
52360;SDS011;38294;42.966;1.608;2023-02-15T10:46:06;10.07;;;4.30;;
52360;SDS011;38294;42.966;1.608;2023-02-15T10:51:43;6.00;;;3.70;;
52360;SDS011;38294;42.966;1.608;2023-02-15T10:54:17;7.15;;;3.78;;
52360;SDS011;38294;42.966;1.608;2023-02-15T11:00:23;6.80;;;3.67;;
52360;SDS011;38294;42.966;1.608;2023-02-15T11:02:51;6.38;;;3.97;;
52360;SDS011;38294;42.966;1.608;2023-02-15T11:05:34;8.52;;;4.03;;
52360;SDS011;38294;42.966;1.608;2023-02-15T11:08:07;7.72;;;4.10;;
52360;SDS011;38294;42.966;1.608;2023-02-15T11:10:36;12.43;;;5.10;;
52360;SDS011;38294;42.966;1.608;2023-02-15T11:13:16;7.00;;;3.88;;
52360;SDS011;38294;42.966;1.608;2023-02-15T11:23:22;9.80;;;3.53;;
52360;SDS011;38294;42.966;1.608;2023-02-15T11:25:58;7.70;;;3.67;;
52360;SDS011;38294;42.966;1.608;2023-02-15T11:31:18;7.03;;;3.95;;
52360;SDS011;38294;42.966;1.608;2023-02-15T11:33:48;11.55;;;4.80;;
52360;SDS011;38294;42.966;1.608;2023-02-15T11:39:05;6.85;;;3.67;;
52360;SDS011;38294;42.966;1.608;2023-02-15T11:41:37;5.72;;;3.75;;
52360;SDS011;38294;42.966;1.608;2023-02-15T11:44:11;4.60;;;3.58;;
52360;SDS011;38294;42.966;1.608;2023-02-15T11:46:38;8.77;;;3.65;;
52360;SDS011;38294;42.966;1.608;2023-02-15T11:49:49;5.93;;;3.40;;
52360;SDS011;38294;42.966;1.608;2023-02-15T11:51:55;6.93;;;3.67;;
52360;SDS011;38294;42.966;1.608;2023-02-15T11:54:25;7.78;;;4.20;;
52360;SDS011;38294;42.966;1.608;2023-02-15T11:56:54;10.23;;;5.20;;
52360;SDS011;38294;42.966;1.608;2023-02-15T11:59:33;4.65;;;3.35;;
52360;SDS011;38294;42.966;1.608;2023-02-15T12:02:02;7.53;;;3.50;;
52360;SDS011;38294;42.966;1.608;2023-02-15T12:04:30;8.25;;;4.00;;
52360;SDS011;38294;42.966;1.608;2023-02-15T12:07:05;10.27;;;4.00;;
52360;SDS011;38294;42.966;1.608;2023-02-15T12:12:45;7.47;;;3.45;;
52360;SDS011;38294;42.966;1.608;2023-02-15T12:15:11;7.97;;;3.55;;
52360;SDS011;38294;42.966;1.608;2023-02-15T12:17:39;8.15;;;3.60;;
52360;SDS011;38294;42.966;1.608;2023-02-15T12:22:51;5.85;;;3.10;;
52360;SDS011;38294;42.966;1.608;2023-02-15T12:25:21;6.47;;;3.33;;
52360;SDS011;38294;42.966;1.608;2023-02-15T12:35:42;6.95;;;3.38;;
52360;SDS011;38294;42.966;1.608;2023-02-15T12:38:20;4.60;;;3.30;;
52360;SDS011;38294;42.966;1.608;2023-02-15T12:41:03;5.05;;;3.38;;
52360;SDS011;38294;42.966;1.608;2023-02-15T12:43:34;4.72;;;3.60;;
52360;SDS011;38294;42.966;1.608;2023-02-15T12:46:21;4.90;;;3.45;;
52360;SDS011;38294;42.966;1.608;2023-02-15T12:49:04;8.55;;;3.28;;
52360;SDS011;38294;42.966;1.608;2023-02-15T12:51:51;4.65;;;2.80;;
52360;SDS011;38294;42.966;1.608;2023-02-15T12:56:53;5.18;;;2.97;;
52360;SDS011;38294;42.966;1.608;2023-02-15T12:59:18;4.88;;;2.97;;
52360;SDS011;38294;42.966;1.608;2023-02-15T13:01:45;5.50;;;3.42;;
52360;SDS011;38294;42.966;1.608;2023-02-15T13:04:22;7.70;;;4.10;;
52360;SDS011;38294;42.966;1.608;2023-02-15T13:06:49;5.40;;;3.22;;
52360;SDS011;38294;42.966;1.608;2023-02-15T13:09:20;5.32;;;3.10;;
52360;SDS011;38294;42.966;1.608;2023-02-15T13:14:58;5.30;;;2.53;;
52360;SDS011;38294;42.966;1.608;2023-02-15T13:17:28;4.45;;;2.90;;
52360;SDS011;38294;42.966;1.608;2023-02-15T13:19:59;4.50;;;3.30;;
52360;SDS011;38294;42.966;1.608;2023-02-15T13:22:33;5.15;;;3.35;;
52360;SDS011;38294;42.966;1.608;2023-02-15T13:25:14;7.25;;;2.85;;
52360;SDS011;38294;42.966;1.608;2023-02-15T13:27:44;8.90;;;3.70;;
52360;SDS011;38294;42.966;1.608;2023-02-15T13:32:51;3.30;;;2.53;;
52360;SDS011;38294;42.966;1.608;2023-02-15T13:35:21;5.63;;;2.97;;
52360;SDS011;38294;42.966;1.608;2023-02-15T13:38:10;4.25;;;2.78;;
52360;SDS011;38294;42.966;1.608;2023-02-15T13:41:03;5.00;;;2.30;;
52360;SDS011;38294;42.966;1.608;2023-02-15T13:49:19;3.22;;;2.30;;
52360;SDS011;38294;42.966;1.608;2023-02-15T14:00:01;6.20;;;2.95;;
52360;SDS011;38294;42.966;1.608;2023-02-15T14:05:56;4.50;;;2.40;;
52360;SDS011;38294;42.966;1.608;2023-02-15T14:11:17;6.00;;;2.58;;
52360;SDS011;38294;42.966;1.608;2023-02-15T14:19:28;5.53;;;3.05;;
52360;SDS011;38294;42.966;1.608;2023-02-15T14:22:02;5.95;;;2.50;;
52360;SDS011;38294;42.966;1.608;2023-02-15T14:25:38;3.83;;;3.00;;
52360;SDS011;38294;42.966;1.608;2023-02-15T14:30:24;5.68;;;2.80;;
52360;SDS011;38294;42.966;1.608;2023-02-15T14:33:06;5.68;;;3.40;;
52360;SDS011;38294;42.966;1.608;2023-02-15T14:35:34;6.25;;;3.60;;
52360;SDS011;38294;42.966;1.608;2023-02-15T14:49:12;5.35;;;3.50;;
52360;SDS011;38294;42.966;1.608;2023-02-15T14:54:22;5.88;;;3.83;;
52360;SDS011;38294;42.966;1.608;2023-02-15T15:02:59;7.70;;;4.30;;
52360;SDS011;38294;42.966;1.608;2023-02-15T15:05:17;8.15;;;3.72;;
52360;SDS011;38294;42.966;1.608;2023-02-15T15:07:50;7.60;;;3.95;;
52360;SDS011;38294;42.966;1.608;2023-02-15T15:12:47;4.72;;;3.42;;
52360;SDS011;38294;42.966;1.608;2023-02-15T15:17:53;6.70;;;3.72;;
52360;SDS011;38294;42.966;1.608;2023-02-15T15:25:40;9.27;;;3.90;;
52360;SDS011;38294;42.966;1.608;2023-02-15T15:47:54;10.82;;;4.00;;
52360;SDS011;38294;42.966;1.608;2023-02-15T15:50:40;5.45;;;3.65;;
52360;SDS011;38294;42.966;1.608;2023-02-15T15:53:10;12.63;;;3.72;;
52360;SDS011;38294;42.966;1.608;2023-02-15T15:55:46;6.40;;;3.42;;
52360;SDS011;38294;42.966;1.608;2023-02-15T15:58:14;8.20;;;4.00;;
52360;SDS011;38294;42.966;1.608;2023-02-15T16:03:16;7.50;;;3.92;;
52360;SDS011;38294;42.966;1.608;2023-02-15T16:05:47;9.57;;;4.30;;
52360;SDS011;38294;42.966;1.608;2023-02-15T16:08:25;10.07;;;4.30;;
52360;SDS011;38294;42.966;1.608;2023-02-15T16:10:56;8.65;;;4.40;;
52360;SDS011;38294;42.966;1.608;2023-02-15T16:13:22;8.10;;;4.10;;
52360;SDS011;38294;42.966;1.608;2023-02-15T16:15:50;7.82;;;3.83;;
52360;SDS011;38294;42.966;1.608;2023-02-15T16:18:18;6.00;;;3.60;;
52360;SDS011;38294;42.966;1.608;2023-02-15T16:20:51;10.68;;;4.20;;
52360;SDS011;38294;42.966;1.608;2023-02-15T16:23:38;6.40;;;3.88;;
52360;SDS011;38294;42.966;1.608;2023-02-15T16:29:33;5.32;;;3.65;;
52360;SDS011;38294;42.966;1.608;2023-02-15T16:32:03;8.75;;;4.65;;
52360;SDS011;38294;42.966;1.608;2023-02-15T16:34:31;7.03;;;4.28;;
52360;SDS011;38294;42.966;1.608;2023-02-15T16:37:12;8.93;;;3.83;;
52360;SDS011;38294;42.966;1.608;2023-02-15T16:39:43;8.40;;;3.80;;
52360;SDS011;38294;42.966;1.608;2023-02-15T16:42:10;6.07;;;4.15;;
52360;SDS011;38294;42.966;1.608;2023-02-15T16:44:37;7.97;;;4.13;;
52360;SDS011;38294;42.966;1.608;2023-02-15T16:47:04;8.35;;;3.97;;
52360;SDS011;38294;42.966;1.608;2023-02-15T16:49:37;8.13;;;4.20;;
52360;SDS011;38294;42.966;1.608;2023-02-15T16:52:05;6.93;;;4.32;;
52360;SDS011;38294;42.966;1.608;2023-02-15T16:54:32;7.28;;;4.57;;
52360;SDS011;38294;42.966;1.608;2023-02-15T16:56:58;10.45;;;4.75;;
52360;SDS011;38294;42.966;1.608;2023-02-15T16:59:30;7.57;;;4.20;;
52360;SDS011;38294;42.966;1.608;2023-02-15T17:02:05;8.45;;;4.45;;
52360;SDS011;38294;42.966;1.608;2023-02-15T17:04:37;8.25;;;4.57;;
52360;SDS011;38294;42.966;1.608;2023-02-15T17:09:49;10.88;;;5.20;;
52360;SDS011;38294;42.966;1.608;2023-02-15T17:13:02;12.20;;;4.75;;
52360;SDS011;38294;42.966;1.608;2023-02-15T17:18:09;12.85;;;4.70;;
52360;SDS011;38294;42.966;1.608;2023-02-15T17:20:39;10.60;;;4.97;;
52360;SDS011;38294;42.966;1.608;2023-02-15T17:23:17;11.93;;;6.03;;
52360;SDS011;38294;42.966;1.608;2023-02-15T17:25:46;11.15;;;4.93;;
52360;SDS011;38294;42.966;1.608;2023-02-15T17:28:16;13.73;;;5.63;;
52360;SDS011;38294;42.966;1.608;2023-02-15T17:30:48;8.95;;;5.53;;
52360;SDS011;38294;42.966;1.608;2023-02-15T17:33:26;12.60;;;5.70;;
52360;SDS011;38294;42.966;1.608;2023-02-15T17:38:35;12.93;;;6.00;;
52360;SDS011;38294;42.966;1.608;2023-02-15T17:41:02;11.30;;;6.28;;
52360;SDS011;38294;42.966;1.608;2023-02-15T17:43:28;11.38;;;6.57;;
52360;SDS011;38294;42.966;1.608;2023-02-15T17:45:53;12.25;;;7.10;;
52360;SDS011;38294;42.966;1.608;2023-02-15T17:48:39;10.30;;;6.18;;
52360;SDS011;38294;42.966;1.608;2023-02-15T17:51:09;13.45;;;6.65;;
52360;SDS011;38294;42.966;1.608;2023-02-15T17:53:37;18.40;;;7.68;;
52360;SDS011;38294;42.966;1.608;2023-02-15T17:56:03;18.02;;;9.27;;
52360;SDS011;38294;42.966;1.608;2023-02-15T17:58:35;13.73;;;8.73;;
52360;SDS011;38294;42.966;1.608;2023-02-15T18:01:04;16.88;;;8.63;;
52360;SDS011;38294;42.966;1.608;2023-02-15T18:03:53;21.23;;;9.23;;
52360;SDS011;38294;42.966;1.608;2023-02-15T18:06:39;17.13;;;9.80;;
52360;SDS011;38294;42.966;1.608;2023-02-15T18:09:24;16.40;;;9.50;;
52360;SDS011;38294;42.966;1.608;2023-02-15T18:12:28;14.02;;;8.80;;
52360;SDS011;38294;42.966;1.608;2023-02-15T18:14:55;19.25;;;10.23;;
52360;SDS011;38294;42.966;1.608;2023-02-15T18:17:31;17.98;;;9.98;;
52360;SDS011;38294;42.966;1.608;2023-02-15T18:20:02;25.33;;;12.27;;
52360;SDS011;38294;42.966;1.608;2023-02-15T18:22:31;23.98;;;12.27;;
52360;SDS011;38294;42.966;1.608;2023-02-15T18:24:57;20.77;;;10.77;;
52360;SDS011;38294;42.966;1.608;2023-02-15T18:27:23;29.27;;;14.20;;
52360;SDS011;38294;42.966;1.608;2023-02-15T18:29:49;28.73;;;13.27;;
52360;SDS011;38294;42.966;1.608;2023-02-15T18:32:16;29.00;;;13.05;;
52360;SDS011;38294;42.966;1.608;2023-02-15T18:34:46;26.35;;;13.32;;
52360;SDS011;38294;42.966;1.608;2023-02-15T18:37:14;30.75;;;13.85;;
52360;SDS011;38294;42.966;1.608;2023-02-15T18:39:44;29.55;;;14.27;;
52360;SDS011;38294;42.966;1.608;2023-02-15T18:42:22;31.08;;;13.82;;
52360;SDS011;38294;42.966;1.608;2023-02-15T18:44:56;34.63;;;15.15;;
52360;SDS011;38294;42.966;1.608;2023-02-15T18:47:23;37.58;;;13.95;;
52360;SDS011;38294;42.966;1.608;2023-02-15T18:49:49;29.83;;;13.60;;
52360;SDS011;38294;42.966;1.608;2023-02-15T18:52:15;39.08;;;14.65;;
52360;SDS011;38294;42.966;1.608;2023-02-15T18:54:43;33.13;;;14.23;;
52360;SDS011;38294;42.966;1.608;2023-02-15T18:57:11;30.35;;;12.63;;
52360;SDS011;38294;42.966;1.608;2023-02-15T18:59:39;33.53;;;14.30;;
52360;SDS011;38294;42.966;1.608;2023-02-15T19:02:14;33.17;;;14.77;;
52360;SDS011;38294;42.966;1.608;2023-02-15T19:04:41;37.03;;;15.90;;
52360;SDS011;38294;42.966;1.608;2023-02-15T19:07:18;33.47;;;14.63;;
52360;SDS011;38294;42.966;1.608;2023-02-15T19:09:47;40.78;;;15.43;;
52360;SDS011;38294;42.966;1.608;2023-02-15T19:12:15;36.85;;;15.15;;
52360;SDS011;38294;42.966;1.608;2023-02-15T19:14:43;41.50;;;16.67;;
52360;SDS011;38294;42.966;1.608;2023-02-15T19:17:19;40.33;;;16.20;;
52360;SDS011;38294;42.966;1.608;2023-02-15T19:19:46;37.67;;;16.08;;
52360;SDS011;38294;42.966;1.608;2023-02-15T19:22:16;44.00;;;18.27;;
52360;SDS011;38294;42.966;1.608;2023-02-15T19:24:47;42.95;;;17.10;;
52360;SDS011;38294;42.966;1.608;2023-02-15T19:27:17;46.05;;;16.65;;
52360;SDS011;38294;42.966;1.608;2023-02-15T19:29:55;38.22;;;16.73;;
52360;SDS011;38294;42.966;1.608;2023-02-15T19:32:23;38.45;;;15.60;;
52360;SDS011;38294;42.966;1.608;2023-02-15T19:34:49;36.42;;;14.38;;
52360;SDS011;38294;42.966;1.608;2023-02-15T19:37:36;27.98;;;13.65;;
52360;SDS011;38294;42.966;1.608;2023-02-15T19:40:03;31.05;;;14.35;;
52360;SDS011;38294;42.966;1.608;2023-02-15T19:42:29;37.92;;;15.35;;
52360;SDS011;38294;42.966;1.608;2023-02-15T19:44:56;28.90;;;14.63;;
52360;SDS011;38294;42.966;1.608;2023-02-15T19:47:22;42.88;;;15.70;;
52360;SDS011;38294;42.966;1.608;2023-02-15T19:49:49;42.60;;;17.80;;
52360;SDS011;38294;42.966;1.608;2023-02-15T19:52:18;40.30;;;17.13;;
52360;SDS011;38294;42.966;1.608;2023-02-15T19:54:48;33.67;;;15.68;;
52360;SDS011;38294;42.966;1.608;2023-02-15T19:57:14;35.67;;;16.13;;
52360;SDS011;38294;42.966;1.608;2023-02-15T19:59:40;36.05;;;15.52;;
52360;SDS011;38294;42.966;1.608;2023-02-15T20:02:06;26.88;;;13.45;;
52360;SDS011;38294;42.966;1.608;2023-02-15T20:04:36;33.97;;;16.33;;
52360;SDS011;38294;42.966;1.608;2023-02-15T20:07:02;33.45;;;14.68;;
52360;SDS011;38294;42.966;1.608;2023-02-15T20:09:32;34.35;;;14.52;;
52360;SDS011;38294;42.966;1.608;2023-02-15T20:12:01;34.55;;;16.77;;
52360;SDS011;38294;42.966;1.608;2023-02-15T20:14:27;34.03;;;15.50;;
52360;SDS011;38294;42.966;1.608;2023-02-15T20:16:53;34.45;;;15.35;;
52360;SDS011;38294;42.966;1.608;2023-02-15T20:19:18;35.15;;;14.88;;
52360;SDS011;38294;42.966;1.608;2023-02-15T20:21:44;33.22;;;13.90;;
52360;SDS011;38294;42.966;1.608;2023-02-15T20:24:16;34.10;;;15.00;;
52360;SDS011;38294;42.966;1.608;2023-02-15T20:26:44;41.78;;;18.00;;
52360;SDS011;38294;42.966;1.608;2023-02-15T20:29:13;32.25;;;15.48;;
52360;SDS011;38294;42.966;1.608;2023-02-15T20:31:42;38.90;;;16.98;;
52360;SDS011;38294;42.966;1.608;2023-02-15T20:34:08;38.17;;;17.85;;
52360;SDS011;38294;42.966;1.608;2023-02-15T20:36:34;40.20;;;18.52;;
52360;SDS011;38294;42.966;1.608;2023-02-15T20:39:02;38.85;;;15.98;;
52360;SDS011;38294;42.966;1.608;2023-02-15T20:41:35;36.92;;;16.85;;
52360;SDS011;38294;42.966;1.608;2023-02-15T20:44:10;33.30;;;15.70;;
52360;SDS011;38294;42.966;1.608;2023-02-15T20:46:41;34.08;;;13.05;;
52360;SDS011;38294;42.966;1.608;2023-02-15T20:49:06;30.80;;;12.75;;
52360;SDS011;38294;42.966;1.608;2023-02-15T20:51:32;30.70;;;12.57;;
52360;SDS011;38294;42.966;1.608;2023-02-15T20:53:58;27.02;;;12.60;;
52360;SDS011;38294;42.966;1.608;2023-02-15T20:56:23;25.17;;;11.60;;
52360;SDS011;38294;42.966;1.608;2023-02-15T20:58:49;23.17;;;11.13;;
52360;SDS011;38294;42.966;1.608;2023-02-15T21:01:16;32.90;;;13.93;;
52360;SDS011;38294;42.966;1.608;2023-02-15T21:03:43;24.77;;;12.50;;
52360;SDS011;38294;42.966;1.608;2023-02-15T21:06:14;27.15;;;12.85;;
52360;SDS011;38294;42.966;1.608;2023-02-15T21:08:41;28.23;;;13.00;;
52360;SDS011;38294;42.966;1.608;2023-02-15T21:11:19;29.90;;;13.05;;
52360;SDS011;38294;42.966;1.608;2023-02-15T21:13:47;24.00;;;11.85;;
52360;SDS011;38294;42.966;1.608;2023-02-15T21:16:14;33.78;;;12.23;;
52360;SDS011;38294;42.966;1.608;2023-02-15T21:18:40;25.77;;;12.57;;
52360;SDS011;38294;42.966;1.608;2023-02-15T21:21:08;27.48;;;12.88;;
52360;SDS011;38294;42.966;1.608;2023-02-15T21:23:40;30.35;;;13.02;;
52360;SDS011;38294;42.966;1.608;2023-02-15T21:26:14;31.25;;;13.00;;
52360;SDS011;38294;42.966;1.608;2023-02-15T21:28:44;23.17;;;11.05;;
52360;SDS011;38294;42.966;1.608;2023-02-15T21:31:16;23.40;;;11.65;;
52360;SDS011;38294;42.966;1.608;2023-02-15T21:33:44;25.02;;;11.98;;
52360;SDS011;38294;42.966;1.608;2023-02-15T21:36:17;22.05;;;10.52;;
